Time;durP1;ratioP1;P1;durP2;ratioP2;P2;SDS_P1;SDS_P2;PMS_P1;PMS_P2;Temp;Humidity;BMP_temperature;BMP_pressure;BME280_temperature;BME280_humidity;BME280_pressure;Samples;Min_cycle;Max_cycle;Signal;HPM_P1;HPM_P2
2023/06/17 00:02:08;;;;;;;10.85;9.02;;;;;;;20.41;100.00;99199.88;5008912;28;20493;-20
2023/06/17 00:04:33;;;;;;;12.75;9.18;;;;;;;20.02;100.00;99193.16;5008412;28;20026;-19
2023/06/17 00:07:00;;;;;;;12.68;9.25;;;;;;;19.82;100.00;99185.47;5008689;28;20026;-19
2023/06/17 00:09:26;;;;;;;13.40;9.95;;;;;;;20.23;100.00;99196.22;5008854;28;20110;-20
2023/06/17 00:11:52;;;;;;;12.55;9.77;;;;;;;19.96;100.00;99194.38;5008511;28;20034;-23
2023/06/17 00:14:20;;;;;;;16.42;9.88;;;;;;;19.92;100.00;99206.06;5008518;28;20030;-19
2023/06/17 00:16:50;;;;;;;13.23;9.38;;;;;;;19.98;100.00;99205.69;5008229;28;20032;-19
2023/06/17 00:19:15;;;;;;;11.60;9.48;;;;;;;19.74;100.00;99188.88;5008682;28;20053;-21
2023/06/17 00:21:48;;;;;;;15.40;10.07;;;;;;;19.71;100.00;99208.38;5008323;28;20424;-22
2023/06/17 00:24:14;;;;;;;16.90;10.30;;;;;;;19.59;100.00;99211.56;5008350;28;20026;-19
2023/06/17 00:26:40;;;;;;;14.43;10.43;;;;;;;19.68;100.00;99221.38;5008478;28;20041;-19
2023/06/17 00:29:06;;;;;;;15.85;10.38;;;;;;;19.76;100.00;99227.25;5008041;28;20030;-19
2023/06/17 00:31:31;;;;;;;11.93;9.77;;;;;;;19.75;100.00;99220.22;5008409;28;20034;-19
2023/06/17 00:33:57;;;;;;;14.52;10.55;;;;;;;19.67;100.00;99225.16;5008153;28;20033;-19
2023/06/17 00:36:22;;;;;;;14.45;10.35;;;;;;;19.76;100.00;99216.41;5008154;28;20499;-19
2023/06/17 00:38:48;;;;;;;13.95;9.98;;;;;;;19.65;100.00;99226.56;5008159;28;20036;-28
2023/06/17 00:41:13;;;;;;;11.85;10.00;;;;;;;19.74;100.00;99214.00;5008123;28;20124;-19
2023/06/17 00:43:38;;;;;;;11.57;9.68;;;;;;;19.75;100.00;99212.88;5007855;28;20057;-20
2023/06/17 00:46:04;;;;;;;14.07;10.65;;;;;;;19.71;100.00;99192.16;5007508;28;20048;-19
2023/06/17 00:48:29;;;;;;;11.57;9.77;;;;;;;19.88;100.00;99208.59;5007126;28;20046;-19
2023/06/17 00:51:01;;;;;;;12.68;9.75;;;;;;;19.92;100.00;99204.19;5007646;28;20068;-20
2023/06/17 00:53:31;;;;;;;14.20;9.70;;;;;;;20.09;100.00;99198.16;5007934;28;20421;-19
2023/06/17 00:55:58;;;;;;;11.98;10.02;;;;;;;19.95;100.00;99206.28;5007617;28;20057;-19
2023/06/17 00:58:26;;;;;;;11.97;9.97;;;;;;;19.92;100.00;99198.78;5007917;28;20116;-19
2023/06/17 01:00:51;;;;;;;14.90;10.50;;;;;;;19.92;100.00;99204.19;5007456;28;20025;-20
2023/06/17 01:03:17;;;;;;;13.50;9.80;;;;;;;20.03;100.00;99200.16;5007770;28;20026;-20
2023/06/17 01:05:47;;;;;;;14.18;10.85;;;;;;;20.31;100.00;99205.53;5007581;28;20022;-21
2023/06/17 01:08:33;;;;;;;13.77;10.27;;;;;;;19.95;100.00;99203.56;5007701;28;20060;-23
2023/06/17 01:11:08;;;;;;;13.07;10.80;;;;;;;19.76;100.00;99194.78;5007568;28;20081;-19
2023/06/17 01:13:35;;;;;;;13.88;10.18;;;;;;;19.78;100.00;99187.16;5007847;28;20085;-19
2023/06/17 01:16:02;;;;;;;13.30;10.10;;;;;;;19.91;100.00;99183.63;5007219;28;20041;-19
2023/06/17 01:18:29;;;;;;;13.50;10.57;;;;;;;20.14;100.00;99181.00;5007446;28;20033;-21
2023/06/17 01:20:55;;;;;;;13.98;10.88;;;;;;;20.22;100.00;99180.28;5007217;28;20475;-19
2023/06/17 01:23:23;;;;;;;16.27;10.20;;;;;;;20.16;100.00;99176.88;5007176;28;20036;-20
2023/06/17 01:25:49;;;;;;;15.13;10.77;;;;;;;20.20;100.00;99177.06;5007268;28;20034;-19
2023/06/17 01:28:20;;;;;;;14.85;10.10;;;;;;;20.27;100.00;99182.88;5006869;28;20394;-19
2023/06/17 01:30:47;;;;;;;16.20;11.60;;;;;;;20.18;100.00;99180.06;5007292;28;20026;-19
2023/06/17 01:33:14;;;;;;;14.90;11.35;;;;;;;20.19;100.00;99170.84;5006969;28;20033;-22
2023/06/17 01:35:45;;;;;;;16.40;11.75;;;;;;;20.17;100.00;99167.66;5007470;28;20044;-19
2023/06/17 01:38:19;;;;;;;15.60;11.73;;;;;;;20.16;100.00;99181.50;5007377;28;20036;-19
2023/06/17 01:40:46;;;;;;;16.08;11.15;;;;;;;20.27;100.00;99175.53;5007071;28;20026;-20
2023/06/17 01:43:15;;;;;;;14.10;11.13;;;;;;;20.15;100.00;99159.03;5005632;28;20042;-18
2023/06/17 01:45:41;;;;;;;15.85;11.75;;;;;;;20.35;100.00;99175.91;4987621;28;20184;-19
2023/06/17 01:48:07;;;;;;;12.98;10.65;;;;;;;20.20;100.00;99175.16;4986939;28;20109;-19
2023/06/17 01:50:32;;;;;;;16.70;11.32;;;;;;;20.29;100.00;99169.84;4987497;28;20106;-19
2023/06/17 01:52:58;;;;;;;16.48;11.18;;;;;;;19.87;100.00;99164.47;4987235;28;20064;-19
2023/06/17 01:55:23;;;;;;;13.98;11.15;;;;;;;20.33;100.00;99170.81;4987287;28;20521;-19
2023/06/17 01:57:49;;;;;;;14.40;10.32;;;;;;;20.23;100.00;99165.66;4987220;28;20034;-19
2023/06/17 02:00:15;;;;;;;17.50;11.00;;;;;;;20.17;100.00;99166.84;4986593;28;20055;-20
2023/06/17 02:02:40;;;;;;;16.88;10.68;;;;;;;20.05;100.00;99165.47;4987386;28;20042;-19
2023/06/17 02:05:06;;;;;;;14.85;11.10;;;;;;;20.09;100.00;99170.28;4986649;28;20034;-19
2023/06/17 02:07:31;;;;;;;16.33;11.23;;;;;;;19.84;100.00;99162.41;4987052;28;20042;-19
2023/06/17 02:09:57;;;;;;;15.65;12.57;;;;;;;19.92;100.00;99166.31;4986568;28;20101;-19
2023/06/17 02:12:24;;;;;;;13.38;11.27;;;;;;;19.94;100.00;99155.97;4986833;28;20088;-19
2023/06/17 02:14:50;;;;;;;13.38;10.77;;;;;;;20.14;100.00;99162.03;4986719;28;20540;-20
2023/06/17 02:17:15;;;;;;;16.10;11.75;;;;;;;20.02;100.00;99166.09;4986813;28;20034;-19
2023/06/17 02:19:41;;;;;;;13.18;10.77;;;;;;;20.14;100.00;99172.88;4986657;28;20146;-19
2023/06/17 02:22:07;;;;;;;14.57;11.45;;;;;;;20.15;100.00;99172.56;4986562;28;20034;-19
2023/06/17 02:24:33;;;;;;;16.00;11.13;;;;;;;19.98;100.00;99159.69;4986475;28;20490;-18
2023/06/17 02:26:58;;;;;;;15.82;11.43;;;;;;;20.00;100.00;99156.66;4986638;28;20077;-19
2023/06/17 02:29:25;;;;;;;15.02;11.63;;;;;;;19.87;100.00;99153.66;4986492;28;20026;-19
2023/06/17 02:31:51;;;;;;;14.55;10.90;;;;;;;19.90;100.00;99152.28;4986535;28;20022;-19
2023/06/17 02:34:17;;;;;;;14.70;10.88;;;;;;;19.68;100.00;99158.38;4986369;28;20088;-19
2023/06/17 02:36:43;;;;;;;13.98;11.07;;;;;;;19.58;100.00;99151.25;4986327;28;20023;-19
2023/06/17 02:39:08;;;;;;;13.50;10.80;;;;;;;19.39;100.00;99145.13;4986575;28;20417;-19
2023/06/17 02:41:34;;;;;;;12.90;10.50;;;;;;;19.27;100.00;99151.84;4986546;28;20023;-19
2023/06/17 02:43:59;;;;;;;13.00;11.00;;;;;;;19.01;100.00;99154.19;4986038;28;20048;-19
2023/06/17 02:46:25;;;;;;;14.63;11.30;;;;;;;18.94;100.00;99163.78;4986116;28;20084;-19
2023/06/17 02:48:51;;;;;;;12.38;10.35;;;;;;;19.16;100.00;99155.81;4985912;28;20080;-20
2023/06/17 02:51:16;;;;;;;15.25;10.75;;;;;;;19.34;100.00;99166.88;4986780;28;20022;-19
2023/06/17 02:53:42;;;;;;;15.18;10.48;;;;;;;19.02;100.00;99171.22;4986221;28;20081;-18
2023/06/17 02:56:07;;;;;;;15.02;10.95;;;;;;;19.14;100.00;99163.44;4986660;28;20041;-18
2023/06/17 02:58:33;;;;;;;18.42;10.98;;;;;;;19.27;100.00;99173.47;4986158;28;20727;-19
2023/06/17 03:00:58;;;;;;;15.10;10.60;;;;;;;19.21;100.00;99177.38;4986334;28;20465;-20
2023/06/17 03:03:33;;;;;;;17.17;11.35;;;;;;;19.24;100.00;99182.16;4985857;28;20022;-18
2023/06/17 03:06:01;;;;;;;14.32;10.68;;;;;;;19.14;100.00;99182.34;4985964;28;20557;-19
2023/06/17 03:08:32;;;;;;;13.75;10.45;;;;;;;19.16;100.00;99180.16;4986248;28;20494;-19
2023/06/17 03:10:59;;;;;;;12.65;10.05;;;;;;;19.24;100.00;99190.28;4987390;28;20026;-23
2023/06/17 03:13:24;;;;;;;14.10;9.65;;;;;;;19.17;100.00;99176.34;4992674;28;20034;-19
2023/06/17 03:15:50;;;;;;;14.23;10.40;;;;;;;19.18;100.00;99185.25;4992467;28;20049;-19
2023/06/17 03:18:16;;;;;;;15.02;10.45;;;;;;;19.39;100.00;99183.81;4992701;28;20026;-19
2023/06/17 03:20:42;;;;;;;13.75;10.40;;;;;;;19.51;100.00;99182.50;4992263;28;20049;-19
2023/06/17 03:23:08;;;;;;;12.27;10.23;;;;;;;19.42;100.00;99182.41;4992761;28;20045;-19
2023/06/17 03:25:34;;;;;;;13.70;9.82;;;;;;;19.17;100.00;99184.47;4992315;28;20484;-19
2023/06/17 03:28:02;;;;;;;13.45;10.23;;;;;;;19.04;100.00;99185.22;4992389;28;20423;-19
2023/06/17 03:30:28;;;;;;;;;;;;;;;18.93;100.00;99189.22;4992929;28;20478;-19
2023/06/17 03:32:57;;;;;;;13.35;9.93;;;;;;;18.86;100.00;99179.59;4992251;28;19918;-19
2023/06/17 03:35:23;;;;;;;15.38;10.23;;;;;;;19.00;100.00;99186.91;4992386;28;20106;-19
2023/06/17 03:37:49;;;;;;;13.63;10.43;;;;;;;19.13;100.00;99198.88;4992093;28;20034;-19
2023/06/17 03:40:14;;;;;;;17.15;10.48;;;;;;;19.25;100.00;99200.00;4992563;28;20045;-19
2023/06/17 03:42:40;;;;;;;17.42;10.73;;;;;;;19.40;100.00;99188.09;4992310;28;20119;-18
2023/06/17 03:45:05;;;;;;;13.57;10.02;;;;;;;19.26;100.00;99198.09;4992365;28;20026;-19
2023/06/17 03:47:31;;;;;;;14.27;10.85;;;;;;;19.47;100.00;99199.34;4992118;28;20022;-19
2023/06/17 03:49:56;;;;;;;17.23;10.43;;;;;;;19.37;100.00;99201.41;4992538;28;20031;-22
2023/06/17 03:52:22;;;;;;;14.15;11.35;;;;;;;19.53;100.00;99207.34;4992227;28;20109;-20
2023/06/17 03:54:48;;;;;;;17.88;11.15;;;;;;;19.51;100.00;99194.09;4992495;28;20113;-19
2023/06/17 03:57:13;;;;;;;14.25;11.02;;;;;;;19.36;100.00;99211.41;4992283;28;20061;-19
2023/06/17 03:59:39;;;;;;;13.35;10.15;;;;;;;19.28;100.00;99201.28;4992307;28;20034;-19
2023/06/17 04:02:04;;;;;;;15.25;10.50;;;;;;;19.28;100.00;99212.91;4992223;28;20042;-19
2023/06/17 04:04:32;;;;;;;14.90;10.98;;;;;;;19.40;100.00;99214.34;4991967;28;20080;-19
2023/06/17 04:06:58;;;;;;;12.70;10.52;;;;;;;19.45;100.00;99208.81;4992212;28;20490;-17
2023/06/17 04:09:23;;;;;;;15.52;11.10;;;;;;;19.78;100.00;99212.31;4991864;28;20046;-19
2023/06/17 04:11:48;;;;;;;16.40;11.45;;;;;;;19.74;100.00;99207.81;4992191;28;20018;-19
2023/06/17 04:14:14;;;;;;;16.52;10.90;;;;;;;19.75;100.00;99214.81;4991911;28;20476;-19
2023/06/17 04:16:41;;;;;;;17.92;11.43;;;;;;;19.87;100.00;99212.41;4991922;28;20038;-19
2023/06/17 04:19:09;;;;;;;14.60;11.27;;;;;;;19.76;100.00;99221.81;4991843;28;20026;-19
2023/06/17 04:21:35;;;;;;;17.15;11.68;;;;;;;19.68;100.00;99217.88;4992039;28;20027;-18
2023/06/17 04:24:00;;;;;;;20.60;12.40;;;;;;;19.62;100.00;99217.16;4989292;28;20465;-19
2023/06/17 04:26:28;;;;;;;16.30;11.57;;;;;;;19.31;100.00;99221.50;4988584;28;20089;-19
2023/06/17 04:28:53;;;;;;;15.65;11.43;;;;;;;19.24;100.00;99221.91;4988990;28;20030;-19
2023/06/17 04:31:19;;;;;;;17.60;11.50;;;;;;;19.17;100.00;99216.09;4988610;28;20403;-23
2023/06/17 04:33:44;;;;;;;15.65;10.82;;;;;;;19.49;100.00;99228.75;4988936;28;20495;-19
2023/06/17 04:36:10;;;;;;;16.30;12.13;;;;;;;19.55;100.00;99229.47;4987311;28;20036;-19
2023/06/17 04:38:37;;;;;;;14.60;11.85;;;;;;;19.59;100.00;99228.56;4988639;28;20042;-19
2023/06/17 04:41:05;;;;;;;17.75;11.93;;;;;;;19.64;100.00;99230.41;4988660;28;20065;-19
2023/06/17 04:43:32;;;;;;;14.65;11.75;;;;;;;19.45;100.00;99238.56;4991419;28;20057;-19
2023/06/17 04:45:59;;;;;;;19.08;11.68;;;;;;;19.44;100.00;99234.28;5007939;28;20022;-19
2023/06/17 04:48:25;;;;;;;17.15;13.30;;;;;;;19.45;100.00;99233.16;5007633;28;20440;-19
2023/06/17 04:50:52;;;;;;;16.20;12.32;;;;;;;19.33;100.00;99235.53;5007901;28;20026;-24
2023/06/17 04:53:18;;;;;;;17.37;13.50;;;;;;;19.41;100.00;99240.25;5007704;28;20127;-19
2023/06/17 04:55:43;;;;;;;18.20;14.13;;;;;;;19.41;100.00;99232.97;5007745;28;20025;-20
2023/06/17 04:58:09;;;;;;;18.25;13.32;;;;;;;19.52;100.00;99244.41;5007587;28;20105;-20
2023/06/17 05:00:34;;;;;;;15.73;12.15;;;;;;;19.51;100.00;99253.59;5007490;28;20040;-21
2023/06/17 05:02:59;;;;;;;18.27;12.32;;;;;;;19.49;100.00;99250.38;5007543;28;20521;-19
2023/06/17 05:05:25;;;;;;;14.77;11.52;;;;;;;19.52;100.00;99249.81;5007098;28;20041;-18
2023/06/17 05:07:50;;;;;;;15.90;11.55;;;;;;;19.66;100.00;99258.75;5007742;28;20080;-22
2023/06/17 05:10:16;;;;;;;19.50;12.55;;;;;;;19.66;100.00;99256.03;5007354;28;20026;-21
2023/06/17 05:12:41;;;;;;;16.55;12.15;;;;;;;19.74;100.00;99251.09;5007428;28;20034;-19
2023/06/17 05:15:07;;;;;;;15.98;12.57;;;;;;;19.54;100.00;99241.41;5007036;28;20172;-19
2023/06/17 05:17:33;;;;;;;15.93;13.05;;;;;;;19.67;100.00;99263.03;5007342;28;20030;-19
2023/06/17 05:19:58;;;;;;;17.50;12.88;;;;;;;19.72;100.00;99262.19;5007364;28;20388;-19
2023/06/17 05:22:24;;;;;;;18.27;13.90;;;;;;;19.75;100.00;99260.78;5007168;28;20246;-19
2023/06/17 05:24:49;;;;;;;17.45;14.73;;;;;;;19.76;100.00;99243.47;5007464;28;20022;-19
2023/06/17 05:27:14;;;;;;;16.85;13.57;;;;;;;19.86;100.00;99270.34;5006944;28;20034;-20
2023/06/17 05:29:40;;;;;;;16.42;13.20;;;;;;;19.87;100.00;99274.63;5007115;28;20038;-19
2023/06/17 05:32:06;;;;;;;17.92;14.68;;;;;;;20.14;100.00;99273.81;5007076;28;20394;-19
2023/06/17 05:34:32;;;;;;;18.88;14.15;;;;;;;20.03;100.00;99275.94;5006803;28;20026;-19
2023/06/17 05:36:57;;;;;;;20.23;14.52;;;;;;;20.02;100.00;99284.34;5006934;28;20036;-19
2023/06/17 05:39:23;;;;;;;16.15;14.13;;;;;;;19.92;100.00;99282.66;5007156;28;20037;-21
2023/06/17 05:41:48;;;;;;;19.27;14.48;;;;;;;19.84;100.00;99286.06;5006758;28;20048;-25
2023/06/17 05:44:13;;;;;;;19.00;15.57;;;;;;;19.81;100.00;99294.75;5006732;28;20046;-19
2023/06/17 05:46:39;;;;;;;21.02;14.75;;;;;;;19.98;100.00;99300.41;5007072;28;20491;-18
2023/06/17 05:49:04;;;;;;;16.35;13.95;;;;;;;20.05;100.00;99303.50;5006471;28;20421;-19
2023/06/17 05:51:30;;;;;;;18.73;14.35;;;;;;;19.93;100.00;99300.47;5006899;28;20026;-19
2023/06/17 05:53:55;;;;;;;19.10;15.45;;;;;;;20.03;100.00;99304.91;5006505;28;20040;-19
2023/06/17 05:56:21;;;;;;;17.15;15.30;;;;;;;19.85;100.00;99303.88;5007027;28;20033;-19
2023/06/17 05:58:46;;;;;;;18.42;15.18;;;;;;;19.84;100.00;99302.28;5006656;28;20018;-19
2023/06/17 06:01:12;;;;;;;21.05;16.48;;;;;;;19.82;100.00;99304.50;5006790;28;20096;-19
2023/06/17 06:03:37;;;;;;;21.70;15.07;;;;;;;19.82;100.00;99296.38;5006626;28;20037;-19
2023/06/17 06:06:03;;;;;;;17.77;14.45;;;;;;;19.96;100.00;99313.44;5006218;28;20038;-17
2023/06/17 06:08:28;;;;;;;17.20;14.88;;;;;;;20.06;100.00;99301.59;5006338;28;20025;-19
2023/06/17 06:10:54;;;;;;;23.15;16.30;;;;;;;20.19;100.00;99300.00;5006303;28;20030;-23
2023/06/17 06:13:20;;;;;;;24.42;14.80;;;;;;;20.27;100.00;99302.00;5006700;28;20037;-19
2023/06/17 06:15:46;;;;;;;19.27;15.30;;;;;;;20.28;100.00;99306.31;5006205;28;20026;-19
2023/06/17 06:18:11;;;;;;;18.27;15.02;;;;;;;20.27;100.00;99296.59;5006246;28;20030;-19
2023/06/17 06:20:37;;;;;;;21.88;15.63;;;;;;;20.36;100.00;99302.88;5005859;28;20018;-20
2023/06/17 06:23:02;;;;;;;21.20;14.32;;;;;;;20.56;100.00;99298.16;5006202;28;20061;-18
2023/06/17 06:25:28;;;;;;;16.92;14.07;;;;;;;20.51;100.00;99295.53;5006027;28;20030;-19
2023/06/17 06:27:53;;;;;;;18.90;15.95;;;;;;;20.79;100.00;99307.94;5006141;28;20022;-24
2023/06/17 06:30:18;;;;;;;19.58;16.20;;;;;;;20.85;100.00;99312.16;5005982;28;20468;-18
2023/06/17 06:32:44;;;;;;;18.40;15.32;;;;;;;20.87;100.00;99309.94;5005735;28;20040;-19
2023/06/17 06:35:10;;;;;;;20.38;15.05;;;;;;;21.08;100.00;99309.47;5006339;28;20034;-19
2023/06/17 06:37:35;;;;;;;18.35;14.57;;;;;;;20.93;100.00;99310.63;5005397;28;20536;-19
2023/06/17 06:40:01;;;;;;;16.88;13.88;;;;;;;21.16;100.00;99311.44;5005884;28;20029;-19
2023/06/17 06:42:26;;;;;;;15.70;13.60;;;;;;;21.14;100.00;99316.38;5005554;28;20030;-19
2023/06/17 06:44:52;;;;;;;17.00;14.13;;;;;;;21.28;100.00;99319.03;5006340;28;20137;-19
2023/06/17 06:47:18;;;;;;;17.38;15.52;;;;;;;21.34;100.00;99319.72;4987696;28;20029;-19
2023/06/17 06:49:43;;;;;;;16.27;13.77;;;;;;;21.19;100.00;99313.56;5005731;28;20801;-20
2023/06/17 06:52:09;;;;;;;17.52;13.48;;;;;;;21.17;100.00;99313.06;5005965;28;20500;-19
2023/06/17 06:54:34;;;;;;;17.92;15.00;;;;;;;21.05;100.00;99308.19;5005727;28;20030;-17
2023/06/17 06:57:00;;;;;;;17.67;15.18;;;;;;;21.00;100.00;99310.19;5005812;28;20033;-20
2023/06/17 06:59:26;;;;;;;21.15;15.07;;;;;;;20.95;100.00;99311.13;5005546;28;20413;-19
2023/06/17 07:01:51;;;;;;;17.05;13.85;;;;;;;20.91;100.00;99312.84;5006170;28;20022;-19
2023/06/17 07:04:20;;;;;;;19.20;15.82;;;;;;;21.00;100.00;99312.91;5005681;28;20113;-19
2023/06/17 07:06:45;;;;;;;16.05;14.35;;;;;;;20.99;100.00;99311.31;5005655;28;20041;-19
2023/06/17 07:09:11;;;;;;;18.85;15.20;;;;;;;20.81;100.00;99300.31;5005613;28;20121;-19
2023/06/17 07:11:36;;;;;;;17.90;14.77;;;;;;;20.76;100.00;99307.75;5005603;28;20113;-20
2023/06/17 07:14:02;;;;;;;17.42;15.10;;;;;;;20.83;100.00;99308.16;5005462;28;20026;-18
2023/06/17 07:16:27;;;;;;;21.73;15.50;;;;;;;20.89;100.00;99306.13;5005645;28;20030;-19
2023/06/17 07:18:52;;;;;;;19.23;15.35;;;;;;;20.99;100.00;99306.69;5005505;28;20061;-19
2023/06/17 07:21:18;;;;;;;19.92;15.95;;;;;;;20.96;100.00;99306.50;5005360;28;20026;-19
2023/06/17 07:23:43;;;;;;;21.95;15.88;;;;;;;20.91;100.00;99296.59;5005234;28;20424;-19
2023/06/17 07:26:09;;;;;;;19.13;16.00;;;;;;;20.96;100.00;99311.91;5005297;28;20037;-19
2023/06/17 07:28:34;;;;;;;19.27;14.55;;;;;;;20.96;100.00;99317.34;5005535;28;20030;-19
2023/06/17 07:31:00;;;;;;;18.40;14.77;;;;;;;21.03;100.00;99306.88;5005485;28;20030;-19
2023/06/17 07:33:26;;;;;;;22.08;16.48;;;;;;;21.06;100.00;99312.50;5005708;28;20069;-19
2023/06/17 07:35:51;;;;;;;20.23;18.02;;;;;;;21.18;100.00;99309.22;5005620;28;20037;-19
2023/06/17 07:38:17;;;;;;;19.65;15.60;;;;;;;21.22;100.00;99320.25;5005199;28;20044;-19
2023/06/17 07:40:43;;;;;;;20.50;16.70;;;;;;;21.20;100.00;99323.28;5005084;28;20049;-19
2023/06/17 07:43:09;;;;;;;17.60;15.00;;;;;;;21.13;100.00;99322.91;5004872;28;20091;-19
2023/06/17 07:45:35;;;;;;;20.52;16.70;;;;;;;21.20;100.00;99328.69;5004800;28;20112;-19
2023/06/17 07:48:00;;;;;;;17.95;16.00;;;;;;;21.21;100.00;99324.09;5004760;28;20061;-18
2023/06/17 07:50:26;;;;;;;21.23;16.42;;;;;;;21.21;100.00;99319.47;5004711;28;20030;-23
2023/06/17 07:52:52;;;;;;;21.25;17.00;;;;;;;21.05;100.00;99326.34;5004605;28;20033;-19
2023/06/17 07:55:18;;;;;;;18.27;16.38;;;;;;;21.04;100.00;99322.84;5004601;28;20034;-19
2023/06/17 07:57:44;;;;;;;24.98;18.17;;;;;;;21.18;100.00;99322.00;5006119;28;20030;-19
2023/06/17 08:00:12;;;;;;;18.90;15.43;;;;;;;21.24;100.00;99332.41;5009334;28;20033;-19
2023/06/17 08:02:40;;;;;;;24.35;16.90;;;;;;;21.28;100.00;99324.44;5009122;28;20077;-19
2023/06/17 08:05:06;;;;;;;28.42;19.35;;;;;;;21.41;100.00;99311.94;5008823;28;20034;-19
2023/06/17 08:07:32;;;;;;;19.65;15.82;;;;;;;21.63;100.00;99330.94;5008778;28;20041;-19
2023/06/17 08:09:57;;;;;;;19.15;15.48;;;;;;;21.66;100.00;99333.03;5008794;28;20030;-22
2023/06/17 08:12:22;;;;;;;19.10;15.60;;;;;;;21.69;100.00;99328.09;5009189;28;20500;-19
2023/06/17 08:14:48;;;;;;;20.13;16.15;;;;;;;21.73;100.00;99334.50;5008458;28;20087;-19
2023/06/17 08:17:13;;;;;;;17.90;15.48;;;;;;;21.80;100.00;99334.84;5009006;28;20030;-19
2023/06/17 08:19:40;;;;;;;17.05;15.15;;;;;;;21.86;100.00;99333.59;5008455;28;20694;-19
2023/06/17 08:22:06;;;;;;;19.73;16.50;;;;;;;21.77;100.00;99335.47;5008370;28;20022;-21
2023/06/17 08:24:32;;;;;;;15.52;13.65;;;;;;;21.76;100.00;99336.59;5008565;28;20075;-20
2023/06/17 08:26:57;;;;;;;17.30;14.88;;;;;;;21.94;100.00;99330.13;5008161;28;20033;-19
2023/06/17 08:29:23;;;;;;;16.75;13.75;;;;;;;21.86;100.00;99333.59;5008782;28;20481;-18
2023/06/17 08:31:51;;;;;;;19.10;14.55;;;;;;;21.88;100.00;99312.38;5008251;28;20112;-19
2023/06/17 08:34:16;;;;;;;17.20;14.45;;;;;;;21.89;100.00;99321.34;5008488;28;20026;-19
2023/06/17 08:36:45;;;;;;;17.95;15.25;;;;;;;22.23;100.00;99328.81;5008344;28;20045;-19
2023/06/17 08:39:10;;;;;;;18.17;15.27;;;;;;;22.34;100.00;99340.22;5008229;28;20025;-19
2023/06/17 08:41:41;;;;;;;17.05;15.00;;;;;;;21.87;100.00;99324.38;5008087;28;20026;-19
2023/06/17 08:44:08;;;;;;;20.92;15.32;;;;;;;21.63;100.00;99324.72;5007909;28;20046;-19
2023/06/17 08:46:34;;;;;;;19.15;15.63;;;;;;;21.82;100.00;99316.34;5008284;28;20029;-19
2023/06/17 08:49:02;;;;;;;17.17;14.05;;;;;;;22.00;100.00;99318.00;5007981;28;20033;-21
2023/06/17 08:51:28;;;;;;;19.42;13.77;;;;;;;21.91;100.00;99314.47;5008071;28;20451;-22
2023/06/17 08:53:55;;;;;;;15.82;13.52;;;;;;;22.02;100.00;99326.66;5008118;28;20841;-19
2023/06/17 08:56:20;;;;;;;17.77;13.98;;;;;;;21.95;100.00;99326.31;5008017;28;20091;-19
2023/06/17 08:58:47;;;;;;;15.32;12.82;;;;;;;22.13;100.00;99329.91;5007833;28;20402;-19
2023/06/17 09:01:13;;;;;;;14.30;11.23;;;;;;;21.80;100.00;99329.41;5007895;28;20034;-19
2023/06/17 09:03:42;;;;;;;15.05;11.27;;;;;;;21.78;100.00;99334.34;5007766;28;20100;-20
2023/06/17 09:06:28;;;;;;;16.95;12.05;;;;;;;21.90;100.00;99333.78;5007927;28;20034;-19
2023/06/17 09:08:55;;;;;;;13.88;10.85;;;;;;;21.87;100.00;99337.94;5006648;28;20034;-21
2023/06/17 09:11:28;;;;;;;16.23;12.15;;;;;;;21.84;100.00;99338.53;5007387;28;20029;-19
2023/06/17 09:13:55;;;;;;;16.52;11.55;;;;;;;21.85;100.00;99342.88;5007738;28;20040;-19
2023/06/17 09:16:34;;;;;;;15.70;12.27;;;;;;;21.77;100.00;99325.41;4989983;28;20547;-19
2023/06/17 09:19:02;;;;;;;15.55;12.55;;;;;;;21.85;100.00;99342.88;5007515;28;20026;-19
2023/06/17 09:21:28;;;;;;;17.92;13.98;;;;;;;21.75;100.00;99348.56;5007452;28;20124;-22
2023/06/17 09:23:55;;;;;;;16.70;12.23;;;;;;;21.62;100.00;99345.63;5007601;28;20037;-19
2023/06/17 09:26:28;;;;;;;18.05;12.07;;;;;;;21.64;100.00;99337.97;5007211;28;20040;-19
2023/06/17 09:28:58;;;;;;;21.05;14.20;;;;;;;21.75;100.00;99340.41;5007470;28;20048;-19
2023/06/17 09:31:24;;;;;;;16.30;12.68;;;;;;;21.50;100.00;99341.88;5007056;28;20030;-19
2023/06/17 09:33:49;;;;;;;20.02;13.20;;;;;;;21.71;100.00;99350.28;5007295;28;20470;-19
2023/06/17 09:36:17;;;;;;;17.92;13.70;;;;;;;21.69;100.00;99345.16;5006943;28;20470;-21
2023/06/17 09:38:43;;;;;;;19.73;14.35;;;;;;;21.53;100.00;99341.25;5006465;28;20042;-20
2023/06/17 09:41:13;;;;;;;19.00;12.88;;;;;;;21.34;100.00;99339.50;5006683;28;20030;-20
2023/06/17 09:43:40;;;;;;;17.92;13.82;;;;;;;21.36;100.00;99352.75;5007112;28;20144;-19
2023/06/17 09:46:06;;;;;;;20.13;14.25;;;;;;;21.38;100.00;99350.53;5006593;28;20034;-19
2023/06/17 09:48:33;;;;;;;15.32;13.20;;;;;;;21.41;100.00;99344.47;5007009;28;20045;-19
2023/06/17 09:51:00;;;;;;;15.45;13.07;;;;;;;21.27;100.00;99345.34;5006866;28;20053;-20
2023/06/17 09:53:29;;;;;;;18.70;13.27;;;;;;;21.38;100.00;99339.69;5007120;28;20033;-21
2023/06/17 09:55:59;;;;;;;17.75;14.13;;;;;;;21.38;100.00;99351.31;5006901;28;20029;-19
2023/06/17 09:58:30;;;;;;;19.88;15.48;;;;;;;21.49;100.00;99345.69;5007001;28;20536;-19
2023/06/17 10:01:04;;;;;;;18.42;15.18;;;;;;;21.51;100.00;99343.47;5006773;28;20029;-18
2023/06/17 10:03:31;;;;;;;17.27;13.93;;;;;;;21.62;100.00;99350.25;5006599;28;20524;-19
2023/06/17 10:06:12;;;;;;;15.23;12.95;;;;;;;21.83;100.00;99354.03;5006792;28;20088;-19
2023/06/17 10:08:43;;;;;;;16.70;13.90;;;;;;;21.81;100.00;99352.75;5006958;28;20061;-19
2023/06/17 10:11:12;;;;;;;15.00;13.23;;;;;;;21.98;100.00;99350.09;5006575;28;20018;-25
2023/06/17 10:13:39;;;;;;;16.08;12.60;;;;;;;22.12;100.00;99351.94;5006543;28;20029;-19
2023/06/17 10:16:08;;;;;;;16.67;12.77;;;;;;;22.13;100.00;99353.53;5006450;28;20029;-20
2023/06/17 10:18:36;;;;;;;15.15;12.65;;;;;;;22.27;100.00;99349.63;5006227;28;20033;-20
2023/06/17 10:21:05;;;;;;;16.85;14.35;;;;;;;22.12;100.00;99335.66;5006257;28;20064;-19
2023/06/17 10:23:32;;;;;;;19.15;14.05;;;;;;;22.36;100.00;99352.38;5006515;28;20037;-19
2023/06/17 10:25:57;;;;;;;17.13;13.52;;;;;;;22.50;100.00;99346.81;5006321;28;20136;-19
2023/06/17 10:28:23;;;;;;;15.20;13.57;;;;;;;22.51;100.00;99353.06;5005980;28;20393;-19
2023/06/17 10:30:51;;;;;;;19.63;14.32;;;;;;;22.23;100.00;99345.94;5006013;28;20109;-18
2023/06/17 10:33:27;;;;;;;16.90;14.55;;;;;;;22.34;100.00;99341.03;5006094;28;20053;-19
2023/06/17 10:36:07;;;;;;;16.92;14.10;;;;;;;22.28;100.00;99339.56;5006254;28;20080;-18
2023/06/17 10:38:34;;;;;;;15.65;12.85;;;;;;;22.28;100.00;99339.56;5006316;28;20117;-19
2023/06/17 10:40:59;;;;;;;18.50;14.53;;;;;;;22.31;100.00;99335.41;5006005;28;20030;-21
2023/06/17 10:43:25;;;;;;;16.70;14.07;;;;;;;22.37;100.00;99339.59;5005799;28;20281;-19
2023/06/17 10:45:55;;;;;;;19.15;14.75;;;;;;;22.55;100.00;99343.94;5006029;28;20192;-19
2023/06/17 10:48:24;;;;;;;18.85;15.18;;;;;;;22.42;100.00;99337.53;5005993;28;20018;-19
2023/06/17 10:50:56;;;;;;;17.90;15.73;;;;;;;22.25;100.00;99324.72;5006118;28;20030;-18
2023/06/17 10:53:27;;;;;;;20.73;15.25;;;;;;;22.30;100.00;99334.63;5006006;28;20477;-20
2023/06/17 10:55:53;;;;;;;20.58;16.42;;;;;;;22.20;100.00;99329.44;5005697;28;20040;-19
2023/06/17 10:58:18;;;;;;;17.90;15.30;;;;;;;22.20;100.00;99324.81;5005983;28;20049;-19
2023/06/17 11:00:44;;;;;;;18.58;15.50;;;;;;;22.21;100.00;99322.88;5005922;28;20036;-19
2023/06/17 11:03:09;;;;;;;16.77;14.88;;;;;;;22.21;100.00;99328.31;5005687;28;20420;-19
2023/06/17 11:05:36;;;;;;;17.20;14.52;;;;;;;22.23;100.00;99317.94;5005807;28;20512;-19
2023/06/17 11:08:05;;;;;;;20.13;16.63;;;;;;;22.22;100.00;99325.28;5005709;28;20034;-19